Time;durP1;ratioP1;P1;durP2;ratioP2;P2;SDS_P1;SDS_P2;PMS_P1;PMS_P2;Temp;Humidity;BMP_temperature;BMP_pressure;BME280_temperature;BME280_humidity;BME280_pressure;Samples;Min_cycle;Max_cycle;Signal;HPM_P1;HPM_P2
2021/10/21 00:05:36;;;;;;;11.93;4.43;;;;;;;17.24;66.44;99019.13;7216309;79;98821;-89
2021/10/21 00:15:37;;;;;;;11.60;4.53;;;;;;;17.24;66.37;99010.80;7196670;81;1495557;-88
2021/10/21 00:25:38;;;;;;;8.03;4.20;;;;;;;17.21;66.55;98982.50;7246842;80;99061;-89
2021/10/21 00:35:39;;;;;;;8.95;4.65;;;;;;;17.15;66.94;98945.41;7237424;80;168025;-89
2021/10/21 00:45:40;;;;;;;10.47;4.93;;;;;;;17.08;67.13;98923.45;7225202;80;140183;-88
2021/10/21 00:55:40;;;;;;;10.00;4.85;;;;;;;16.99;67.33;98887.27;7224220;80;138184;-89
2021/10/21 01:05:41;;;;;;;10.43;5.30;;;;;;;16.96;67.64;98953.47;7241641;80;99042;-88
2021/10/21 01:15:42;;;;;;;13.70;5.03;;;;;;;16.91;67.98;98901.89;7195370;81;98853;-88
2021/10/21 01:25:43;;;;;;;11.23;4.73;;;;;;;16.88;68.24;98840.27;7143695;81;98521;-89
2021/10/21 01:35:44;;;;;;;10.30;5.17;;;;;;;16.85;68.61;98841.20;7146942;81;98820;-88
2021/10/21 01:45:45;;;;;;;10.95;4.72;;;;;;;16.82;68.96;98829.60;7146460;81;98892;-89
2021/10/21 01:55:46;;;;;;;10.63;5.03;;;;;;;16.80;69.15;98814.80;7122271;81;98987;-90
2021/10/21 02:05:47;;;;;;;11.80;5.37;;;;;;;16.71;69.41;98802.85;7150835;81;99098;-89
2021/10/21 02:15:48;;;;;;;8.63;4.67;;;;;;;16.76;69.58;98816.15;7172224;80;98413;-90
2021/10/21 02:25:49;;;;;;;11.13;5.30;;;;;;;16.73;69.69;98817.84;7235379;80;98430;-89
2021/10/21 02:35:50;;;;;;;9.35;4.83;;;;;;;16.72;69.85;98758.56;7238631;80;98534;-88
2021/10/21 02:45:50;;;;;;;11.33;5.30;;;;;;;16.68;69.97;98747.59;7244606;78;98656;-90
2021/10/21 02:55:53;;;;;;;9.53;5.67;;;;;;;16.64;70.14;98742.81;7239433;80;98452;-88
2021/10/21 03:05:54;;;;;;;11.20;5.50;;;;;;;16.57;70.54;98737.52;7239866;80;101561;-89
2021/10/21 03:15:54;;;;;;;11.40;6.05;;;;;;;16.48;70.90;98720.85;7208060;80;99234;-90
2021/10/21 03:25:55;;;;;;;10.25;5.42;;;;;;;16.39;71.39;98675.59;7091879;82;98854;-88
2021/10/21 03:35:57;;;;;;;12.56;6.14;;;;;;;16.29;72.09;98718.42;7079423;81;99332;-89
2021/10/21 03:45:57;;;;;;;10.50;5.90;;;;;;;16.21;72.45;98706.83;7150415;80;98951;-88
2021/10/21 03:55:58;;;;;;;8.93;5.30;;;;;;;16.16;72.93;98699.09;7176083;81;98563;-87
2021/10/21 04:05:59;;;;;;;10.65;5.33;;;;;;;16.08;73.65;98687.33;7130998;79;98668;-87
2021/10/21 04:16:00;;;;;;;10.77;5.20;;;;;;;16.04;74.35;98670.83;7054844;80;116021;-87
2021/10/21 04:26:00;;;;;;;7.65;4.42;;;;;;;15.92;75.95;98559.94;7151806;81;99221;-86
2021/10/21 04:36:01;;;;;;;8.77;4.80;;;;;;;15.80;76.70;98558.05;7151067;81;98573;-88
2021/10/21 04:46:02;;;;;;;9.90;5.10;;;;;;;15.71;77.00;98503.93;7145066;80;98330;-90
2021/10/21 04:56:03;;;;;;;9.90;4.93;;;;;;;15.67;77.30;98389.00;7145174;80;98363;-88
2021/10/21 05:06:04;;;;;;;8.97;4.60;;;;;;;15.63;77.29;98445.20;7151109;81;98363;-89
2021/10/21 05:16:05;;;;;;;8.60;4.50;;;;;;;15.63;77.45;98442.44;7159890;80;98417;-87
2021/10/21 05:26:06;;;;;;;9.00;5.10;;;;;;;15.63;77.43;98440.27;7210559;80;98250;-85
2021/10/21 05:36:06;;;;;;;10.37;5.37;;;;;;;15.68;77.00;98421.03;7243587;80;98839;-86
2021/10/21 05:46:07;;;;;;;10.70;5.25;;;;;;;15.74;75.95;98399.00;7244047;80;98410;-85
2021/10/21 05:56:08;;;;;;;10.80;5.57;;;;;;;15.73;75.65;98373.29;7234300;79;98844;-84
2021/10/21 06:06:09;;;;;;;11.87;5.83;;;;;;;15.73;75.33;98391.92;7241306;80;98913;-86
2021/10/21 06:16:09;;;;;;;10.50;6.00;;;;;;;15.76;75.09;98366.05;7255879;80;98846;-86
2021/10/21 06:26:12;;;;;;;8.47;5.03;;;;;;;15.70;75.39;98322.89;7243146;79;98837;-85
2021/10/21 06:36:13;;;;;;;10.30;4.95;;;;;;;15.68;75.60;98342.00;7250074;80;98556;-85
2021/10/21 06:46:14;;;;;;;9.35;4.97;;;;;;;15.71;75.64;98338.33;7234908;80;98800;-87
2021/10/21 06:56:15;;;;;;;8.63;4.70;;;;;;;15.83;75.53;98365.74;7250971;80;98337;-88
2021/10/21 07:06:15;;;;;;;10.87;4.27;;;;;;;15.82;76.77;98362.22;7254906;80;98304;-85
2021/10/21 07:16:17;;;;;;;9.03;4.63;;;;;;;15.70;78.29;98394.24;7178608;80;98854;-84
2021/10/21 07:26:17;;;;;;;9.03;4.47;;;;;;;15.50;80.33;98371.70;7058278;81;98372;-83
2021/10/21 07:36:19;;;;;;;9.00;4.10;;;;;;;15.25;83.30;98381.00;7029219;81;98595;-88
2021/10/21 07:46:20;;;;;;;8.27;4.70;;;;;;;15.00;84.88;98367.35;7030899;82;98422;-84
2021/10/21 07:56:21;;;;;;;9.47;5.17;;;;;;;14.79;87.09;98350.81;7066806;82;98408;-88
2021/10/21 08:06:22;;;;;;;9.53;5.70;;;;;;;14.67;87.69;98306.00;7080084;82;98495;-84
2021/10/21 08:16:22;;;;;;;15.72;6.62;;;;;;;14.63;88.04;98270.16;7104030;80;98679;-85
2021/10/21 08:26:24;;;;;;;12.40;5.92;;;;;;;14.68;88.34;98234.95;7260759;80;98740;-87
2021/10/21 08:36:25;;;;;;;9.30;4.90;;;;;;;14.78;87.51;98222.66;7243351;80;98820;-84
2021/10/21 08:46:27;;;;;;;10.10;4.70;;;;;;;14.98;85.87;98177.31;7235515;80;98390;-84
2021/10/21 08:56:28;;;;;;;8.67;4.20;;;;;;;15.20;84.38;98166.86;7242481;80;98754;-84
2021/10/21 09:16:42;;;;;;;7.50;3.80;;;;;;;15.75;81.06;98161.44;7229811;80;98336;-86
2021/10/21 09:27:09;;;;;;;7.90;4.10;;;;;;;15.97;79.87;98159.22;7149687;80;98566;-87
2021/10/21 09:37:26;;;;;;;7.17;3.93;;;;;;;16.39;79.17;98159.23;7111811;80;98397;-86
2021/10/21 09:47:27;;;;;;;7.60;3.77;;;;;;;16.80;77.26;98125.85;7198286;80;98354;-86
2021/10/21 09:57:29;;;;;;;4.63;2.63;;;;;;;17.13;74.52;98100.12;7214669;80;130461;-86
2021/10/21 10:07:35;;;;;;;7.07;1.70;;;;;;;17.56;72.69;98102.82;7253743;80;98489;-89
2021/10/21 10:17:36;;;;;;;14.13;1.85;;;;;;;17.79;66.53;98141.67;7234147;80;108390;-87
2021/10/21 10:27:40;;;;;;;4.47;1.20;;;;;;;18.18;65.91;98143.69;7215778;79;98860;-87
2021/10/21 10:37:44;;;;;;;8.50;1.32;;;;;;;18.31;62.86;98118.46;7122317;81;98550;-85
2021/10/21 10:47:58;;;;;;;9.80;1.20;;;;;;;18.21;58.82;98125.39;7181382;80;98460;-84
2021/10/21 10:58:03;;;;;;;8.10;1.20;;;;;;;18.45;55.91;98133.02;7168990;80;146219;-82
2021/10/21 11:08:04;;;;;;;6.00;1.23;;;;;;;18.48;48.89;98170.27;7211963;80;98540;-88
2021/10/21 11:18:05;;;;;;;9.83;1.10;;;;;;;18.42;51.40;98166.00;7189684;80;98290;-84
2021/10/21 11:28:06;;;;;;;17.07;1.70;;;;;;;18.11;53.02;98183.06;7193829;80;98412;-89
2021/10/21 12:03:06;;;;;;;24.57;3.03;;;;;;;17.61;52.21;98203.03;6994944;79;42684;-89
2021/10/21 12:13:08;;;;;;;18.23;1.83;;;;;;;17.25;54.08;98227.55;6802276;83;99019;-89
2021/10/21 12:23:24;;;;;;;10.90;1.47;;;;;;;16.89;55.13;98201.41;6827758;84;98937;-85
2021/10/21 12:33:25;;;;;;;14.60;1.70;;;;;;;16.40;57.85;98232.97;6629038;85;99053;-83
2021/10/21 12:43:27;;;;;;;31.13;3.57;;;;;;;16.00;58.83;98240.14;6736851;85;99057;-88
2021/10/21 12:53:28;;;;;;;10.38;1.82;;;;;;;15.70;59.08;98288.87;6918965;84;98802;-88
2021/10/21 13:03:42;;;;;;;10.63;2.10;;;;;;;15.55;60.95;98310.89;6814402;84;98866;-87
2021/10/21 13:13:48;;;;;;;12.00;1.40;;;;;;;15.39;62.07;98297.32;6815546;85;99037;-87
2021/10/21 13:23:45;;;;;;;14.95;1.60;;;;;;;15.37;62.74;98325.34;6812457;85;99030;-86
2021/10/21 13:33:45;;;;;;;11.87;1.70;;;;;;;15.09;66.90;98401.27;6813968;85;99114;-87
2021/10/21 13:43:46;;;;;;;5.77;1.20;;;;;;;14.39;70.80;98450.99;6826922;83;99234;-87
2021/10/21 13:53:47;;;;;;;5.63;1.00;;;;;;;13.87;72.32;98497.20;6805534;85;98927;-87
2021/10/21 14:03:48;;;;;;;1.82;0.70;;;;;;;13.69;71.63;98545.98;6891271;83;98378;-86
2021/10/21 14:13:49;;;;;;;4.03;0.70;;;;;;;13.61;70.42;98581.36;6901614;84;98630;-85
2021/10/21 14:23:50;;;;;;;7.17;0.87;;;;;;;13.52;69.06;98615.78;6898958;84;98310;-86
2021/10/21 14:33:51;;;;;;;7.33;0.72;;;;;;;13.44;66.29;98646.23;6898288;84;98408;-85
2021/10/21 14:43:51;;;;;;;4.80;0.67;;;;;;;13.34;65.55;98678.28;6854497;85;98903;-87
2021/10/21 14:53:53;;;;;;;7.20;0.90;;;;;;;13.24;66.06;98712.53;6848013;84;99368;-89
2021/10/21 15:03:57;;;;;;;3.57;1.00;;;;;;;13.17;65.42;98733.41;6846172;84;98696;-87
2021/10/21 15:24:15;;;;;;;6.87;1.00;;;;;;;13.10;64.99;98763.39;6843828;84;98708;-86
2021/10/21 15:34:20;;;;;;;4.55;1.20;;;;;;;13.06;64.98;98768.22;6838235;85;98879;-88
2021/10/21 15:44:56;;;;;;;10.00;1.53;;;;;;;13.08;64.10;98787.13;6630294;86;98672;-86
2021/10/21 16:15:09;;;;;;;7.57;1.87;;;;;;;12.98;64.87;98851.67;6697942;84;98862;-85
2021/10/21 16:25:21;;;;;;;;;;;;;;;12.79;65.75;98874.55;6611038;87;2036253;-87
2021/10/21 16:35:20;;;;;;;10.17;1.90;;;;;;;12.64;65.14;98883.00;6655619;86;84887;-86
2021/10/21 16:45:21;;;;;;;6.62;1.65;;;;;;;12.63;63.68;98887.73;6622842;87;98506;-84
2021/10/21 16:55:22;;;;;;;7.70;2.07;;;;;;;12.64;62.53;98901.70;6605039;87;201700;-85
2021/10/21 17:05:23;;;;;;;7.20;2.30;;;;;;;12.65;61.54;98942.51;6749380;85;98510;-85
2021/10/21 17:15:23;;;;;;;9.15;1.92;;;;;;;12.66;61.94;98940.70;6750821;86;98796;-85
2021/10/21 17:25:27;;;;;;;8.53;2.10;;;;;;;12.63;62.06;98943.52;6747166;85;98324;-86
2021/10/21 17:35:28;;;;;;;13.37;3.47;;;;;;;12.63;61.55;98947.06;6749084;84;98654;-84
2021/10/21 17:45:29;;;;;;;9.83;2.73;;;;;;;12.69;60.50;98942.59;6742803;85;98616;-87
2021/10/21 17:55:29;;;;;;;13.30;3.33;;;;;;;12.76;59.80;98938.30;6742517;86;98398;-85
2021/10/21 18:05:30;;;;;;;15.93;3.73;;;;;;;12.79;59.39;98938.84;6754227;86;98576;-85
2021/10/21 18:15:35;;;;;;;14.13;3.05;;;;;;;12.80;59.29;98937.62;6871978;84;98810;-85
2021/10/21 18:25:37;;;;;;;6.92;2.98;;;;;;;12.77;58.94;98930.22;6853659;84;1505119;-85
2021/10/21 18:35:38;;;;;;;6.53;2.00;;;;;;;12.74;59.22;98918.64;6885336;84;98649;-87
2021/10/21 18:45:39;;;;;;;9.08;1.40;;;;;;;12.65;59.48;98899.73;6877806;84;98348;-84
2021/10/21 18:55:40;;;;;;;5.90;0.90;;;;;;;12.51;60.20;98898.64;6869983;84;98611;-86
2021/10/21 19:05:44;;;;;;;6.33;1.70;;;;;;;12.45;60.85;98912.77;6836258;85;98751;-86
2021/10/21 19:15:45;;;;;;;7.93;1.87;;;;;;;12.43;61.72;98890.34;6845787;84;98262;-83
2021/10/21 19:25:45;;;;;;;9.30;2.30;;;;;;;12.39;62.16;98897.32;6922326;84;98793;-83
2021/10/21 19:35:46;;;;;;;9.10;2.70;;;;;;;12.48;60.64;98920.20;6750026;85;98375;-85
2021/10/21 19:45:48;;;;;;;9.03;3.00;;;;;;;12.62;62.82;99035.21;6756128;86;98863;-83
2021/10/21 19:55:49;;;;;;;6.05;2.20;;;;;;;11.78;70.18;99056.61;6742793;86;98255;-85
2021/10/21 20:05:50;;;;;;;5.90;1.40;;;;;;;10.91;73.25;99084.13;6748788;86;119306;-85
2021/10/21 20:15:51;;;;;;;17.23;5.33;;;;;;;10.21;75.42;99093.13;6756406;86;98494;-84
2021/10/21 20:25:51;;;;;;;4.87;1.13;;;;;;;9.75;77.21;99115.26;6751141;86;142439;-84
2021/10/21 20:35:52;;;;;;;0.83;0.33;;;;;;;9.51;78.81;99122.46;6738079;86;98254;-85
2021/10/21 20:45:53;;;;;;;2.85;1.27;;;;;;;9.33;80.24;99138.83;6714712;86;2362416;-83
2021/10/21 20:55:55;;;;;;;1.67;0.60;;;;;;;9.20;81.08;99148.09;6722272;86;1332966;-84
2021/10/21 21:05:57;;;;;;;5.05;0.95;;;;;;;9.10;81.94;99181.09;6749059;86;98264;-84
2021/10/21 21:15:57;;;;;;;2.70;0.73;;;;;;;8.97;81.88;99184.84;6734219;86;97937;-82
2021/10/21 21:25:58;;;;;;;4.87;1.10;;;;;;;8.91;81.90;99191.91;6723587;86;1534611;-83
2021/10/21 21:36:02;;;;;;;4.23;0.80;;;;;;;8.89;81.60;99213.45;6740708;85;98563;-86
2021/10/21 21:46:04;;;;;;;5.25;1.50;;;;;;;8.87;82.10;99232.86;6741502;86;98527;-82
2021/10/21 21:56:05;;;;;;;4.55;1.00;;;;;;;8.87;81.91;99253.43;6718720;86;2214930;-87
2021/10/21 22:06:08;;;;;;;2.40;0.82;;;;;;;8.78;81.52;99265.41;6751585;85;98284;-86
2021/10/21 22:16:09;;;;;;;;;;;;;;;8.72;81.09;99278.72;6734833;86;98117;-86
2021/10/21 22:26:10;;;;;;;2.50;0.85;;;;;;;8.73;81.38;99304.20;6744221;86;91856;-88
2021/10/21 22:36:11;;;;;;;5.57;1.30;;;;;;;8.70;80.73;99300.28;6758551;86;98056;-84
2021/10/21 22:46:11;;;;;;;7.43;1.30;;;;;;;8.67;80.23;99306.53;6754744;86;97999;-87
2021/10/21 22:56:14;;;;;;;7.28;1.22;;;;;;;8.56;79.75;99315.94;6751493;86;98062;-85
2021/10/21 23:06:18;;;;;;;10.53;2.30;;;;;;;8.45;79.27;99335.70;6811510;84;98153;-85
2021/10/21 23:16:19;;;;;;;9.10;1.50;;;;;;;8.39;78.89;99349.60;6818739;84;98147;-86
2021/10/21 23:26:20;;;;;;;6.47;1.37;;;;;;;8.31;78.66;99348.80;6816720;84;98333;-87
2021/10/21 23:36:21;;;;;;;8.48;1.10;;;;;;;8.31;77.98;99376.20;6822584;84;98139;-83
2021/10/21 23:46:22;;;;;;;8.03;1.40;;;;;;;8.32;77.71;99385.99;6817995;84;98121;-86
2021/10/21 23:56:23;;;;;;;7.83;1.25;;;;;;;8.35;77.11;99403.02;6810523;84;98708;-87
